Accueil
METAR-TAF:

METAR-TAF

Aéroports :

Aéroport de Méchria

Méchria, Algérie

latitude: 34-56N, longitude: 000-26W, altitude: 1149 m

Observation

Le bulletin a été fait il y a 10 minutes, à 12:00 UTC
Vent 8 kt de sud
Température 33°C
Humidité 19%
Pression 1019 hPa
Visibilité 10 km ou plus
pas de nuages en-dessous de 1500 mètres et pas de cumulonimbus.

METAR: DAAY 021200Z 18008KT CAVOK 33/06 Q1019

Heure: 13:10 (12:10 UTC)

Prévision

Le bulletin a été fait il y a 1 heure et 10 minutes, à 11:00 UTC
Prévision valable du 02 à 12 UTC au 02 à 21 UTC
Vent 10 kt de est/sud-est
Visibilité 10 km ou plus
pas de nuages en-dessous de 1500 mètres et pas de cumulonimbus.
Evoluant progressivement
du 02 à 13 UTC au 02 à 15 UTC
Vent 12 kt de nord/nord-ouest

TAF: DAAY 021100Z 0212/0221 11010KT CAVOK BECMG 0213/0215 34012KT

Observations et prévisions météorologiques de plus de 4000 aéroports (messages METAR et TAF).

Les stations disponibles sont représentées par des disques jaunes et rouges sur la carte.

Passer la souris dessus pour voir le nom de la station.

Cliquer dessus pour voir les observations et prévisions météorologiques.

Pour changer de carte: cliquez sur les boutons verts avec une croix noire pour zoomer, sur le bouton vert avec un tiret pour effectuer un zoom arrière, ou sur les flèches vertes pour les cartes adjacentes.


METAR-TAF: